Time;durP1;ratioP1;P1;durP2;ratioP2;P2;SDS_P1;SDS_P2;PMS_P1;PMS_P2;Temp;Humidity;BMP_temperature;BMP_pressure;BME280_temperature;BME280_humidity;BME280_pressure;Samples;Min_cycle;Max_cycle;Signal;HPM_P1;HPM_P2
2021/01/21 00:00:55;;;;;;;20.57;13.67;;;;;;;0.91;68.24;101459.81;5049200;28;20067;-82
2021/01/21 00:03:21;;;;;;;22.97;14.80;;;;;;;0.66;67.92;101430.34;5049387;28;20040;-82
2021/01/21 00:05:46;;;;;;;30.67;17.80;;;;;;;0.80;68.35;101458.81;5050413;28;20029;-81
2021/01/21 00:08:12;;;;;;;45.37;24.40;;;;;;;0.76;68.74;101460.94;5049638;28;20025;-82
2021/01/21 00:10:37;;;;;;;38.80;23.60;;;;;;;0.86;68.88;101480.47;5049517;28;20390;-81
2021/01/21 00:13:03;;;;;;;34.63;20.40;;;;;;;0.76;68.80;101468.56;5049657;28;20032;-82
2021/01/21 00:15:28;;;;;;;33.60;19.33;;;;;;;0.74;69.15;101462.47;5049670;28;20028;-82
2021/01/21 00:17:53;;;;;;;48.27;25.60;;;;;;;0.79;69.34;101463.78;5050425;28;20463;-81
2021/01/21 00:20:19;;;;;;;27.60;17.73;;;;;;;0.84;69.43;101469.28;5050800;28;20025;-82
2021/01/21 00:22:44;;;;;;;26.83;17.03;;;;;;;0.78;69.28;101462.88;5050920;28;20039;-81
2021/01/21 00:25:10;;;;;;;29.83;18.43;;;;;;;0.72;69.88;101466.50;5049485;28;20025;-82
2021/01/21 00:27:36;;;;;;;30.57;18.60;;;;;;;0.66;70.25;101471.94;5050749;28;20112;-81
2021/01/21 00:30:05;;;;;;;34.27;19.60;;;;;;;0.50;70.48;101463.59;5049149;28;20116;-82
2021/01/21 00:32:30;;;;;;;25.42;16.20;;;;;;;0.52;70.91;101480.78;5050223;28;20029;-82
2021/01/21 00:34:56;;;;;;;30.03;18.33;;;;;;;0.39;71.43;101476.22;5050339;28;20495;-81
2021/01/21 00:37:21;;;;;;;30.93;20.10;;;;;;;0.41;71.47;101489.97;5049551;28;20499;-82
2021/01/21 00:39:47;;;;;;;31.00;20.50;;;;;;;0.37;71.47;101487.88;5049215;28;20499;-82
2021/01/21 00:42:12;;;;;;;34.03;20.67;;;;;;;0.32;72.06;101492.53;5048698;28;20037;-81
2021/01/21 00:44:38;;;;;;;34.03;21.37;;;;;;;0.29;72.35;101493.88;5049363;28;20021;-82
2021/01/21 00:47:03;;;;;;;33.77;21.23;;;;;;;0.06;72.35;101454.47;5049544;28;20025;-81
2021/01/21 00:49:28;;;;;;;35.27;22.00;;;;;;;0.20;72.45;101486.28;5049314;28;20431;-82
2021/01/21 00:51:54;;;;;;;33.70;20.97;;;;;;;0.03;72.84;101461.81;5049671;28;20387;-81
2021/01/21 00:54:19;;;;;;;33.90;20.60;;;;;;;0.15;73.15;101496.00;5049598;28;20033;-82
2021/01/21 00:56:45;;;;;;;36.43;23.47;;;;;;;0.11;73.12;101493.94;5049629;28;20025;-82
2021/01/21 00:59:10;;;;;;;37.23;21.70;;;;;;;0.14;72.98;101490.78;5049626;28;20029;-81
2021/01/21 01:01:37;;;;;;;37.17;22.07;;;;;;;0.10;73.21;101497.22;5050916;28;20093;-81
2021/01/21 01:04:02;;;;;;;33.37;22.23;;;;;;;-0.07;73.30;101469.31;5050423;28;20028;-82
2021/01/21 01:06:28;;;;;;;36.30;21.67;;;;;;;0.17;73.18;101508.84;5049566;28;20558;-82
2021/01/21 01:08:53;;;;;;;41.70;24.27;;;;;;;0.08;73.24;101483.47;5050572;28;20029;-82
2021/01/21 01:11:18;;;;;;;45.53;26.43;;;;;;;-0.01;73.29;101467.38;5049594;28;20475;-82
2021/01/21 01:13:44;;;;;;;48.20;26.00;;;;;;;0.17;73.02;101482.56;5051947;28;20498;-81
2021/01/21 01:16:10;;;;;;;53.13;30.37;;;;;;;0.16;73.26;101496.88;5054266;28;20398;-81
2021/01/21 01:18:35;;;;;;;48.17;27.30;;;;;;;-0.10;73.47;101442.00;5054256;28;20483;-82
2021/01/21 01:21:01;;;;;;;40.93;26.07;;;;;;;0.15;73.37;101479.88;5054078;28;20036;-82
2021/01/21 01:23:27;;;;;;;43.13;25.97;;;;;;;0.08;73.76;101470.78;5052865;28;20037;-81
2021/01/21 01:25:53;;;;;;;43.17;27.07;;;;;;;-0.11;73.84;101439.28;5052831;28;20036;-82
2021/01/21 01:28:19;;;;;;;42.97;26.00;;;;;;;-0.02;74.07;101458.84;5054074;28;20394;-81
2021/01/21 01:30:45;;;;;;;43.80;27.57;;;;;;;-0.01;74.35;101462.28;5052842;28;20040;-82
2021/01/21 01:33:10;;;;;;;44.60;27.27;;;;;;;0.04;74.73;101466.16;5053768;28;20029;-82
2021/01/21 01:35:35;;;;;;;47.10;27.93;;;;;;;0.02;74.88;101457.50;5053996;28;20021;-82
2021/01/21 01:38:01;;;;;;;47.90;29.40;;;;;;;-0.08;74.88;101430.34;5053563;28;20039;-82
2021/01/21 01:40:26;;;;;;;45.27;29.50;;;;;;;0.05;74.99;101451.81;5052511;28;20025;-81
2021/01/21 01:42:52;;;;;;;52.10;31.10;;;;;;;0.04;75.10;101460.16;5053636;28;20490;-82
2021/01/21 01:45:17;;;;;;;48.37;28.80;;;;;;;0.05;75.15;101461.97;5052668;28;20025;-82
2021/01/21 01:47:45;;;;;;;51.03;30.67;;;;;;;-0.03;75.38;101449.44;5052436;28;20039;-82
2021/01/21 01:50:11;;;;;;;48.03;29.40;;;;;;;-0.10;75.98;101461.41;5052180;28;20057;-82
2021/01/21 01:52:46;;;;;;;49.63;30.27;;;;;;;-0.18;76.33;101456.47;5054038;28;20036;-82
2021/01/21 01:55:13;;;;;;;52.37;32.43;;;;;;;-0.25;76.54;101443.97;5052268;28;20406;-82
2021/01/21 01:57:40;;;;;;;59.87;33.00;;;;;;;-0.07;77.10;101454.97;5052225;28;20036;-81
2021/01/21 02:00:06;;;;;;;55.10;32.57;;;;;;;-0.04;77.22;101454.38;5053640;28;20046;-82
2021/01/21 02:02:32;;;;;;;51.97;32.00;;;;;;;-0.30;76.94;101407.09;5053224;28;20510;-82
2021/01/21 02:04:59;;;;;;;50.97;31.67;;;;;;;-0.03;76.76;101438.41;5053485;28;20025;-82
2021/01/21 02:07:24;;;;;;;56.30;31.73;;;;;;;-0.06;76.67;101439.00;5052184;28;20025;-82
2021/01/21 02:09:50;;;;;;;57.27;34.57;;;;;;;-0.18;76.89;101423.47;5052973;28;20052;-81
2021/01/21 02:12:34;;;;;;;55.67;32.53;;;;;;;0.01;76.50;101443.00;5052150;28;20033;-82
2021/01/21 02:15:12;;;;;;;50.83;32.80;;;;;;;0.03;76.13;101441.50;5053342;28;20021;-82
2021/01/21 02:17:51;;;;;;;54.10;32.70;;;;;;;0.05;75.76;101446.72;5051923;28;20036;-82
2021/01/21 02:20:41;;;;;;;52.88;32.03;;;;;;;-0.03;76.12;101431.66;5053155;28;20032;-82
2021/01/21 02:23:46;;;;;;;50.83;31.43;;;;;;;-0.13;75.85;101413.78;5052897;28;20079;-82
2021/01/21 02:26:21;;;;;;;55.23;32.20;;;;;;;-0.50;76.09;101362.97;5052841;28;20076;-82
2021/01/21 02:29:08;;;;;;;50.77;31.87;;;;;;;-0.03;75.85;101441.81;5051654;28;20552;-82
2021/01/21 02:32:02;;;;;;;52.20;32.20;;;;;;;0.00;75.80;101443.78;5051596;28;20546;-82
2021/01/21 02:34:36;;;;;;;47.93;30.47;;;;;;;-0.08;76.16;101440.47;4994308;28;20053;-81
2021/01/21 02:37:04;;;;;;;53.47;31.87;;;;;;;-0.11;76.16;101434.22;4994207;28;20582;-82
2021/01/21 02:39:33;;;;;;;54.27;33.50;;;;;;;-0.12;75.82;101422.31;5010565;28;20072;-82
2021/01/21 02:41:58;;;;;;;53.60;32.67;;;;;;;-0.08;75.95;101432.88;5010543;28;20030;-82
2021/01/21 02:44:28;;;;;;;58.43;33.30;;;;;;;-0.09;76.02;101433.63;5010358;28;20189;-82
2021/01/21 02:46:55;;;;;;;56.20;33.20;;;;;;;-0.01;75.54;101435.25;5010496;28;20034;-82
2021/01/21 02:49:21;;;;;;;53.77;32.53;;;;;;;0.02;75.24;101438.84;5010182;28;20049;-82
2021/01/21 02:52:08;;;;;;;57.87;37.17;;;;;;;0.12;75.02;101439.84;5010362;28;20157;-82
2021/01/21 02:55:06;;;;;;;59.87;35.83;;;;;;;0.20;74.25;101437.13;4994198;28;20084;-82
2021/01/21 02:57:34;;;;;;;61.27;36.87;;;;;;;0.25;74.06;101444.44;4933141;29;20039;-82
2021/01/21 03:00:07;;;;;;;56.83;33.27;;;;;;;0.18;73.61;101419.22;4933172;29;20541;-82
2021/01/21 03:02:36;;;;;;;54.33;31.63;;;;;;;0.29;73.69;101438.00;4914436;29;20074;-82
2021/01/21 03:05:02;;;;;;;;;;;;;;;0.29;73.40;101449.03;4949085;28;20046;-82
2021/01/21 03:07:29;;;;;;;54.60;34.93;;;;;;;0.29;73.21;101445.63;4932789;29;19935;-82
2021/01/21 03:09:54;;;;;;;54.83;32.73;;;;;;;0.31;72.80;101436.47;4936845;28;20134;-82
2021/01/21 03:12:23;;;;;;;86.07;43.43;;;;;;;0.30;73.06;101434.72;4954973;28;20484;-81
2021/01/21 03:14:51;;;;;;;59.05;36.70;;;;;;;0.12;73.87;101437.28;4971153;28;20400;-82
2021/01/21 03:17:17;;;;;;;61.43;35.70;;;;;;;-0.03;74.41;101434.19;4970998;28;20066;-82
2021/01/21 03:19:43;;;;;;;56.93;33.93;;;;;;;-0.12;74.78;101430.81;4955003;28;20081;-82
2021/01/21 03:22:08;;;;;;;53.10;31.77;;;;;;;-0.26;75.18;101421.88;4954828;28;20050;-82
2021/01/21 03:24:34;;;;;;;49.17;29.97;;;;;;;-0.36;75.75;101431.91;4987120;28;20038;-81
2021/01/21 03:26:59;;;;;;;49.63;31.00;;;;;;;-0.49;76.09;101424.72;4986833;28;20070;-82
2021/01/21 03:29:27;;;;;;;51.40;30.27;;;;;;;-0.54;76.25;101436.06;4970819;28;20142;-81
2021/01/21 03:31:54;;;;;;;47.03;28.50;;;;;;;-0.82;75.96;101382.69;4970726;28;20054;-82
2021/01/21 03:34:20;;;;;;;53.13;32.20;;;;;;;-0.59;76.23;101448.31;5012171;28;20037;-82
2021/01/21 03:36:45;;;;;;;57.93;35.57;;;;;;;-0.72;76.39;101430.13;5030142;28;20410;-82
2021/01/21 03:39:11;;;;;;;53.90;31.57;;;;;;;-0.59;75.85;101434.75;5030422;28;20025;-81
2021/01/21 03:41:39;;;;;;;50.80;29.07;;;;;;;-0.62;75.58;101442.03;5030389;28;20035;-82
2021/01/21 03:44:05;;;;;;;51.93;30.50;;;;;;;-0.85;75.39;101444.13;5031559;28;20030;-81
2021/01/21 03:46:30;;;;;;;52.57;32.73;;;;;;;-1.03;75.16;101399.25;5031729;28;20575;-82
2021/01/21 03:48:56;;;;;;;50.50;31.13;;;;;;;-0.62;74.97;101458.16;5030023;28;20518;-82
2021/01/21 03:51:21;;;;;;;57.40;32.33;;;;;;;-0.83;74.63;101408.78;5031424;28;20033;-82
2021/01/21 03:53:47;;;;;;;49.57;29.67;;;;;;;-0.55;73.96;101446.97;5030219;28;20178;-82
2021/01/21 03:56:12;;;;;;;52.20;31.37;;;;;;;-0.48;74.26;101456.09;5030089;28;20033;-82
2021/01/21 03:58:38;;;;;;;56.90;32.90;;;;;;;-0.62;74.40;101450.56;5031514;28;20027;-81
2021/01/21 04:01:03;;;;;;;69.27;39.50;;;;;;;-0.75;75.39;101461.13;5031235;28;20598;-81
2021/01/21 04:03:29;;;;;;;70.17;40.17;;;;;;;-0.81;74.97;101425.03;5031616;28;20406;-82
2021/01/21 04:05:54;;;;;;;66.70;39.53;;;;;;;-0.63;75.05;101446.22;5031325;28;20022;-82
2021/01/21 04:08:20;;;;;;;61.53;37.47;;;;;;;-0.83;75.07;101413.84;5031478;28;20034;-81
2021/01/21 04:10:45;;;;;;;55.50;33.40;;;;;;;-0.57;74.91;101451.00;5031356;28;20029;-81
2021/01/21 04:13:11;;;;;;;53.57;33.53;;;;;;;-0.68;75.07;101445.78;5030096;28;20414;-82
2021/01/21 04:15:36;;;;;;;55.37;33.27;;;;;;;-0.72;75.25;101450.41;5030008;28;20036;-82
2021/01/21 04:18:01;;;;;;;51.77;32.10;;;;;;;-0.73;75.73;101446.09;5031185;28;20465;-81
2021/01/21 04:20:27;;;;;;;56.00;33.63;;;;;;;-0.74;74.69;101422.34;5031178;28;20045;-81
2021/01/21 04:22:52;;;;;;;50.23;31.93;;;;;;;-0.60;73.98;101441.44;5029997;28;20032;-81
2021/01/21 04:25:18;;;;;;;57.47;34.57;;;;;;;-0.48;73.77;101453.56;5031191;28;20033;-82
2021/01/21 04:27:43;;;;;;;52.13;32.93;;;;;;;-0.62;73.73;101452.19;5031177;28;20036;-81
2021/01/21 04:30:09;;;;;;;51.30;32.27;;;;;;;-0.82;73.69;101408.94;5030889;28;20030;-81
2021/01/21 04:32:35;;;;;;;55.53;33.17;;;;;;;-0.45;73.63;101462.31;5029598;28;20515;-82
2021/01/21 04:35:00;;;;;;;55.90;32.30;;;;;;;-0.47;74.05;101458.75;5029857;28;20163;-82
2021/01/21 04:37:26;;;;;;;52.97;30.33;;;;;;;-0.50;73.52;101455.91;5029982;28;20025;-81
2021/01/21 04:39:51;;;;;;;49.73;30.03;;;;;;;-0.38;73.76;101464.72;5030907;28;20044;-82
2021/01/21 04:42:16;;;;;;;50.97;30.77;;;;;;;-0.30;72.84;101472.19;5030948;28;20029;-82
2021/01/21 04:44:42;;;;;;;51.87;31.00;;;;;;;-0.40;72.74;101463.69;5030684;28;20025;-82
2021/01/21 04:47:09;;;;;;;45.90;29.43;;;;;;;-0.77;72.27;101416.06;5024964;28;20037;-81
2021/01/21 04:49:40;;;;;;;61.87;34.37;;;;;;;-0.46;72.95;101474.88;5033004;28;20053;-81
2021/01/21 04:52:09;;;;;;;58.90;32.80;;;;;;;-0.45;73.31;101467.41;5034892;28;20084;-81
2021/01/21 04:54:41;;;;;;;64.85;34.97;;;;;;;-0.76;72.62;101423.88;5034608;28;20025;-81
2021/01/21 04:57:12;;;;;;;72.17;39.47;;;;;;;-0.47;72.85;101478.16;5034297;28;20499;-81
2021/01/21 04:59:38;;;;;;;64.33;36.83;;;;;;;-0.56;73.50;101478.16;5033429;28;20021;-81
2021/01/21 05:02:05;;;;;;;65.47;36.10;;;;;;;-0.61;73.64;101475.19;5034604;28;20098;-81
2021/01/21 05:04:31;;;;;;;46.90;29.97;;;;;;;-0.67;74.96;101482.19;5034399;28;20480;-81
2021/01/21 05:06:57;;;;;;;59.27;34.13;;;;;;;-0.71;75.24;101492.75;5033032;28;20032;-81
2021/01/21 05:09:23;;;;;;;51.73;31.97;;;;;;;-1.01;76.13;101450.94;5034201;28;20091;-81
2021/01/21 05:11:49;;;;;;;51.77;30.90;;;;;;;-0.77;76.46;101505.75;5049606;28;20384;-81
2021/01/21 05:14:16;;;;;;;52.50;31.47;;;;;;;-0.74;76.56;101500.06;5054405;28;20048;-81
2021/01/21 05:16:43;;;;;;;49.40;29.73;;;;;;;-0.75;76.41;101500.81;5052098;28;20040;-81
2021/01/21 05:19:12;;;;;;;54.57;32.33;;;;;;;-1.07;75.19;101446.19;5062942;28;20036;-81
2021/01/21 05:21:42;;;;;;;53.72;32.20;;;;;;;-0.72;75.46;101516.34;5055454;28;20040;-81
2021/01/21 05:24:11;;;;;;;44.63;27.30;;;;;;;-0.76;74.49;101516.75;5054879;28;20039;-81
2021/01/21 05:26:43;;;;;;;50.10;27.08;;;;;;;-0.78;74.74;101520.81;5071682;28;20048;-82
2021/01/21 05:29:12;;;;;;;70.30;29.10;;;;;;;-0.90;74.38;101516.28;5051141;28;20033;-81
2021/01/21 05:31:38;;;;;;;52.72;23.65;;;;;;;-1.00;74.42;101522.09;5033592;28;20056;-81
2021/01/21 05:34:08;;;;;;;39.77;23.43;;;;;;;-1.29;74.48;101518.28;5028782;28;20423;-81
2021/01/21 05:36:37;;;;;;;38.45;21.98;;;;;;;-1.40;74.45;101515.53;5031544;28;20126;-81
2021/01/21 05:39:07;;;;;;;42.05;21.35;;;;;;;-1.39;74.43;101529.09;5031533;28;20082;-81
2021/01/21 05:41:36;;;;;;;36.22;20.55;;;;;;;-1.49;74.80;101529.81;5033608;28;20048;-81
2021/01/21 05:44:04;;;;;;;39.67;22.55;;;;;;;-1.47;74.88;101534.28;5051363;28;20079;-81
2021/01/21 05:46:31;;;;;;;52.97;25.83;;;;;;;-1.56;74.97;101538.38;5051250;28;20076;-81
2021/01/21 05:48:57;;;;;;;54.03;24.63;;;;;;;-1.72;75.11;101530.88;5016838;28;20045;-80
2021/01/21 05:51:24;;;;;;;40.30;21.60;;;;;;;-1.69;75.32;101536.25;5026575;28;20076;-81
2021/01/21 05:53:52;;;;;;;35.10;20.13;;;;;;;-1.57;75.06;101541.69;5014717;28;20029;-81
2021/01/21 05:56:21;;;;;;;39.17;23.10;;;;;;;-1.67;74.94;101523.72;5014646;28;20037;-81
2021/01/21 05:58:50;;;;;;;53.95;23.15;;;;;;;-1.56;74.93;101547.63;5014377;28;20073;-81
2021/01/21 06:01:15;;;;;;;50.47;23.43;;;;;;;-1.59;74.93;101544.81;5072119;28;20029;-81
2021/01/21 06:03:41;;;;;;;52.27;23.40;;;;;;;-1.69;75.23;101507.50;5073340;28;20111;-81
2021/01/21 06:06:08;;;;;;;54.07;26.97;;;;;;;-1.36;74.63;101545.50;5060752;28;20029;-81
2021/01/21 06:08:39;;;;;;;46.53;27.20;;;;;;;-1.28;74.48;101541.22;5049594;28;20045;-82
2021/01/21 06:11:07;;;;;;;47.00;26.67;;;;;;;-1.17;74.27;101544.84;4895187;28;20051;-81
2021/01/21 06:13:36;;;;;;;43.77;25.77;;;;;;;-1.35;74.87;101510.94;4976501;28;20046;-82
2021/01/21 06:16:05;;;;;;;45.65;25.20;;;;;;;-1.59;74.57;101458.69;4972175;28;20031;-82
2021/01/21 06:18:30;;;;;;;43.37;23.93;;;;;;;-1.02;74.00;101553.09;4971908;28;20062;-82
2021/01/21 06:20:56;;;;;;;41.77;23.37;;;;;;;-1.08;73.88;101552.47;4971795;28;20784;-79
2021/01/21 06:23:24;;;;;;;40.17;23.17;;;;;;;-1.29;74.67;101548.66;4973511;28;20437;-79
2021/01/21 06:25:53;;;;;;;44.80;25.67;;;;;;;-1.29;74.54;101538.53;4980943;28;20037;-79
2021/01/21 06:28:20;;;;;;;61.97;34.92;;;;;;;-1.36;75.14;101545.50;4990846;28;20037;-77
2021/01/21 06:30:55;;;;;;;63.27;34.37;;;;;;;-1.45;75.73;101541.13;4971492;28;20042;-78
2021/01/21 06:33:25;;;;;;;56.93;32.27;;;;;;;-1.32;75.91;101551.78;4988813;28;20123;-73
2021/01/21 06:38:19;;;;;;;63.58;33.08;;;;;;;-1.18;75.53;101549.00;5014503;23;20055;-73
2021/01/21 06:40:52;;;;;;;101.38;43.67;;;;;;;-1.05;74.95;101555.31;4936413;28;20120;-72
2021/01/21 06:43:19;;;;;;;114.57;51.20;;;;;;;-1.06;74.76;101529.09;4941522;28;20035;-71
2021/01/21 06:45:45;;;;;;;78.83;42.00;;;;;;;-0.96;74.73;101535.94;4953949;29;20497;-77
2021/01/21 06:48:11;;;;;;;54.60;30.40;;;;;;;-1.59;74.94;101443.50;4954400;28;20023;-77
2021/01/21 06:50:39;;;;;;;60.87;33.37;;;;;;;-0.99;75.08;101533.13;4954756;28;20110;-77
2021/01/21 06:53:08;;;;;;;60.23;34.33;;;;;;;-0.90;74.88;101526.41;4954734;28;20034;-77
2021/01/21 06:55:35;;;;;;;58.53;35.37;;;;;;;-0.88;75.14;101526.59;4954521;28;20478;-77
2021/01/21 06:58:02;;;;;;;58.77;34.80;;;;;;;-0.96;74.98;101486.91;4954570;28;20114;-76
2021/01/21 07:00:33;;;;;;;69.73;37.27;;;;;;;-0.66;74.51;101530.50;4953477;28;20512;-74
2021/01/21 07:02:59;;;;;;;112.40;48.73;;;;;;;-0.63;74.56;101531.56;4954603;28;20031;-76
2021/01/21 07:05:25;;;;;;;111.67;49.30;;;;;;;-0.55;73.81;101531.59;4954619;28;20164;-75
2021/01/21 07:07:55;;;;;;;71.23;38.43;;;;;;;-0.34;73.87;101532.78;4954298;28;20508;-76
2021/01/21 07:10:32;;;;;;;60.70;34.80;;;;;;;-0.22;73.45;101528.00;4953521;28;20106;-74
2021/01/21 07:13:01;;;;;;;74.67;40.80;;;;;;;-0.09;73.31;101527.53;4954083;28;20038;-74
2021/01/21 07:15:40;;;;;;;97.28;49.25;;;;;;;-0.01;72.45;101529.19;4954447;28;20114;-76
2021/01/21 07:18:11;;;;;;;66.53;40.83;;;;;;;0.10;72.36;101535.31;4954548;28;20031;-76
2021/01/21 07:20:59;;;;;;;77.17;40.77;;;;;;;0.24;72.19;101523.03;4954131;28;20114;-74
2021/01/21 07:23:42;;;;;;;76.40;44.03;;;;;;;0.32;71.33;101538.25;4954064;28;20032;-75
2021/01/21 07:26:26;;;;;;;69.73;41.80;;;;;;;-0.02;72.50;101496.03;4954108;28;20118;-74
2021/01/21 07:28:54;;;;;;;73.07;43.73;;;;;;;0.34;72.46;101552.72;4954068;28;20027;-75
2021/01/21 07:31:20;;;;;;;63.03;38.40;;;;;;;0.24;72.48;101525.56;4953680;28;20117;-75
2021/01/21 07:33:46;;;;;;;58.00;33.00;;;;;;;0.43;73.37;101541.78;4936610;29;20459;-75
2021/01/21 07:36:29;;;;;;;57.40;33.40;;;;;;;0.23;73.66;101539.00;4937396;28;20040;-73
2021/01/21 07:38:55;;;;;;;57.03;32.93;;;;;;;0.21;74.11;101535.41;4934800;29;20031;-72
2021/01/21 07:41:51;;;;;;;57.70;33.77;;;;;;;0.35;73.84;101547.81;4934468;29;20483;-74
2021/01/21 07:44:17;;;;;;;59.07;34.27;;;;;;;0.41;74.24;101548.41;4980132;28;20055;-74
2021/01/21 07:46:43;;;;;;;52.40;32.60;;;;;;;0.41;73.95;101550.00;4990052;28;20081;-74
2021/01/21 07:49:28;;;;;;;58.80;35.03;;;;;;;0.51;74.50;101547.59;4990025;28;20108;-74
2021/01/21 07:52:04;;;;;;;83.20;48.53;;;;;;;0.43;74.68;101546.88;4989839;28;20117;-74
2021/01/21 07:54:31;;;;;;;79.50;50.23;;;;;;;0.37;74.87;101550.47;4990081;28;20046;-74
2021/01/21 07:56:57;;;;;;;78.63;49.57;;;;;;;0.46;75.14;101564.03;4973870;28;20038;-73
2021/01/21 07:59:23;;;;;;;95.83;54.13;;;;;;;0.58;75.13;101556.72;4957608;28;20053;-73
2021/01/21 08:01:57;;;;;;;81.60;51.10;;;;;;;0.64;75.28;101549.66;4990039;28;20046;-74
2021/01/21 08:04:22;;;;;;;73.73;47.03;;;;;;;0.71;74.87;101558.75;4989846;28;20113;-74
2021/01/21 08:06:57;;;;;;;68.33;43.20;;;;;;;0.89;74.80;101542.69;4989536;28;20039;-73
2021/01/21 08:09:24;;;;;;;57.97;34.73;;;;;;;1.01;73.57;101553.09;4989769;28;20076;-74
2021/01/21 08:11:51;;;;;;;50.40;32.43;;;;;;;1.06;73.85;101556.06;4989727;28;20042;-74
2021/01/21 08:14:17;;;;;;;52.57;30.73;;;;;;;1.01;73.60;101522.59;4971322;28;20130;-74
2021/01/21 08:16:48;;;;;;;50.87;30.23;;;;;;;1.01;72.90;101512.41;4956536;28;20664;-74
2021/01/21 08:19:13;;;;;;;49.83;29.13;;;;;;;1.53;71.81;101551.00;4950588;29;20490;-75
2021/01/21 08:21:39;;;;;;;43.93;27.37;;;;;;;1.68;71.63;101552.38;4931678;29;20051;-74
2021/01/21 08:24:09;;;;;;;40.57;24.00;;;;;;;1.53;70.14;101510.28;4918878;29;20096;-74
2021/01/21 08:26:36;;;;;;;43.27;26.17;;;;;;;1.64;70.21;101504.50;4942034;29;20494;-72
2021/01/21 08:29:15;;;;;;;38.37;22.40;;;;;;;2.00;69.86;101541.63;4957075;28;20061;-72
2021/01/21 08:31:43;;;;;;;41.35;21.50;;;;;;;2.04;69.44;101543.66;4956575;28;20035;-76
2021/01/21 08:34:20;;;;;;;34.17;21.67;;;;;;;2.19;69.21;101548.34;4956662;28;20487;-77
2021/01/21 08:36:46;;;;;;;31.97;20.93;;;;;;;2.27;68.41;101552.47;4956703;28;20063;-76
2021/01/21 08:39:12;;;;;;;90.77;36.50;;;;;;;2.43;68.35;101537.75;4956727;28;20461;-76
2021/01/21 08:41:40;;;;;;;38.47;20.60;;;;;;;2.55;67.62;101539.56;4956986;28;20031;-76
2021/01/21 08:44:06;;;;;;;32.53;19.77;;;;;;;2.64;66.61;101540.38;4955284;29;20038;-76
2021/01/21 08:46:32;;;;;;;39.03;25.73;;;;;;;2.78;67.18;101526.25;4953422;28;20039;-74
2021/01/21 08:49:10;;;;;;;40.43;22.60;;;;;;;2.82;67.73;101524.88;4956639;28;20110;-74
2021/01/21 08:51:39;;;;;;;38.57;21.83;;;;;;;2.84;67.58;101492.72;4956452;28;20110;-74
2021/01/21 08:54:17;;;;;;;37.30;21.17;;;;;;;3.02;67.83;101494.25;4956705;28;20508;-74
2021/01/21 08:56:44;;;;;;;29.80;18.90;;;;;;;3.28;67.19;101528.72;4955706;28;20031;-75
2021/01/21 08:59:29;;;;;;;27.67;17.63;;;;;;;3.39;67.12;101530.50;4956667;28;20113;-74
2021/01/21 09:01:56;;;;;;;26.80;18.03;;;;;;;3.54;66.75;101528.34;5002882;28;20453;-74
2021/01/21 09:04:26;;;;;;;27.60;17.87;;;;;;;3.63;66.49;101523.09;4956009;28;20498;-75
2021/01/21 09:06:55;;;;;;;26.77;19.20;;;;;;;3.75;66.18;101529.97;4956094;28;20035;-73
2021/01/21 09:09:32;;;;;;;24.70;15.05;;;;;;;3.71;66.24;101505.81;4946991;28;20039;-73
2021/01/21 09:12:24;;;;;;;25.37;17.30;;;;;;;3.78;65.59;101513.22;4952183;29;20407;-74
2021/01/21 09:15:00;;;;;;;23.50;15.77;;;;;;;3.98;64.14;101507.16;4956451;28;20055;-76
2021/01/21 09:17:26;;;;;;;26.33;17.43;;;;;;;4.05;63.90;101509.44;4956150;28;20027;-77
2021/01/21 09:19:51;;;;;;;26.23;17.53;;;;;;;4.20;64.38;101501.22;4956078;28;20027;-76
2021/01/21 09:22:22;;;;;;;29.00;19.80;;;;;;;4.33;63.54;101496.28;4955964;28;20050;-77
2021/01/21 09:24:54;;;;;;;27.97;18.77;;;;;;;4.43;63.10;101492.78;4956328;28;20524;-75
2021/01/21 09:27:23;;;;;;;28.10;17.73;;;;;;;4.52;62.97;101484.94;4956126;28;20034;-75
2021/01/21 09:29:54;;;;;;;27.23;17.50;;;;;;;4.53;62.85;101481.63;4956041;28;20023;-78
2021/01/21 09:32:22;;;;;;;30.05;19.40;;;;;;;4.70;63.10;101488.94;4970948;28;20031;-78
2021/01/21 09:34:59;;;;;;;27.85;17.98;;;;;;;4.79;62.35;101493.84;4955088;28;20031;-77
2021/01/21 09:37:27;;;;;;;28.80;18.83;;;;;;;4.88;62.80;101485.09;4970418;28;20055;-77
2021/01/21 09:39:53;;;;;;;30.08;21.05;;;;;;;4.96;62.81;101479.81;4955899;29;20031;-76
2021/01/21 09:42:19;;;;;;;26.27;17.88;;;;;;;4.98;62.40;101467.13;4954588;28;20039;-77
2021/01/21 09:44:45;;;;;;;28.88;18.70;;;;;;;5.07;62.94;101479.72;4955197;28;20118;-76
2021/01/21 09:47:11;;;;;;;24.38;16.63;;;;;;;4.79;62.81;101388.09;4955746;28;20035;-74
2021/01/21 09:49:36;;;;;;;31.65;19.75;;;;;;;5.18;61.49;101432.75;4955601;28;20058;-74
2021/01/21 09:52:05;;;;;;;29.10;18.92;;;;;;;5.44;61.10;101457.72;4955419;28;20117;-74
2021/01/21 09:54:31;;;;;;;27.35;18.02;;;;;;;5.46;61.55;101442.50;4955471;28;20049;-74
2021/01/21 09:56:57;;;;;;;28.38;18.63;;;;;;;5.64;60.74;101451.50;4942620;28;20044;-77
2021/01/21 09:59:23;;;;;;;28.17;20.60;;;;;;;5.51;61.32;101446.28;4935970;29;20034;-76
2021/01/21 10:01:48;;;;;;;30.02;20.05;;;;;;;5.60;61.22;101452.06;4936139;28;20039;-76
2021/01/21 10:04:15;;;;;;;27.50;18.67;;;;;;;5.70;60.58;101440.81;4935922;29;20035;-76
2021/01/21 10:06:41;;;;;;;27.00;18.73;;;;;;;5.66;61.28;101414.09;4935870;29;20032;-75
2021/01/21 10:09:07;;;;;;;26.95;17.55;;;;;;;5.87;60.14;101444.59;4950730;28;20031;-75
2021/01/21 10:11:32;;;;;;;24.58;17.75;;;;;;;5.89;60.45;101426.75;4951114;28;20036;-76
2021/01/21 10:13:58;;;;;;;28.48;18.38;;;;;;;6.02;59.30;101434.59;4935716;29;20040;-75
2021/01/21 10:16:23;;;;;;;25.77;16.63;;;;;;;6.12;59.22;101428.44;4940884;29;20039;-74
2021/01/21 10:18:49;;;;;;;27.55;16.70;;;;;;;6.03;59.43;101387.66;4947397;29;20027;-72
2021/01/21 10:21:14;;;;;;;31.30;18.17;;;;;;;6.09;59.77;101417.94;4951863;28;20027;-72
2021/01/21 10:23:40;;;;;;;26.67;17.98;;;;;;;6.23;59.58;101414.69;4954937;28;20031;-72
2021/01/21 10:26:05;;;;;;;37.38;22.05;;;;;;;6.29;59.67;101402.31;4954859;28;20035;-73
2021/01/21 10:28:31;;;;;;;24.15;17.15;;;;;;;6.37;58.89;101399.34;4954576;28;20035;-73
2021/01/21 10:30:56;;;;;;;34.45;20.33;;;;;;;6.44;58.89;101401.56;4946890;28;20043;-73
2021/01/21 10:33:22;;;;;;;28.30;18.00;;;;;;;6.54;59.13;101396.28;4945450;28;20023;-73
2021/01/21 10:35:47;;;;;;;26.85;17.98;;;;;;;6.56;58.71;101389.56;4938028;29;20039;-73
2021/01/21 10:38:13;;;;;;;28.13;16.58;;;;;;;6.67;57.63;101391.97;4950256;28;20059;-73
2021/01/21 10:40:39;;;;;;;24.95;17.17;;;;;;;6.61;59.00;101377.06;4943905;28;20027;-73
2021/01/21 10:43:05;;;;;;;25.58;17.17;;;;;;;6.64;58.38;101362.75;4940047;28;20040;-73
2021/01/21 10:45:30;;;;;;;24.70;16.25;;;;;;;6.84;57.56;101377.72;4944396;28;20039;-73
2021/01/21 10:47:56;;;;;;;20.67;13.77;;;;;;;6.64;56.83;101344.81;4953455;29;20036;-73
2021/01/21 10:50:21;;;;;;;29.15;15.60;;;;;;;6.83;57.80;101360.53;4953763;28;20031;-72
2021/01/21 10:56:08;;;;;;;24.70;16.45;;;;;;;7.05;56.34;101350.00;4952885;29;20098;-73
2021/01/21 10:58:34;;;;;;;23.98;15.15;;;;;;;7.16;55.96;101343.00;4954528;28;20028;-73
2021/01/21 11:01:00;;;;;;;20.42;14.50;;;;;;;7.30;55.65;101331.91;4954591;28;20027;-73
2021/01/21 11:03:25;;;;;;;24.13;16.02;;;;;;;7.44;54.90;101328.56;4954447;28;20123;-72
2021/01/21 11:05:51;;;;;;;22.83;15.10;;;;;;;7.58;54.54;101334.56;4951310;28;20102;-73
2021/01/21 11:08:16;;;;;;;22.00;15.10;;;;;;;7.52;54.38;101308.47;4941222;28;20036;-73
2021/01/21 11:10:42;;;;;;;22.92;14.82;;;;;;;7.42;54.59;101281.31;4954053;29;20035;-72
2021/01/21 11:13:08;;;;;;;18.45;12.77;;;;;;;7.73;53.47;101316.66;4952948;28;20034;-73
2021/01/21 11:15:35;;;;;;;24.58;15.93;;;;;;;7.69;54.35;101316.34;4943723;28;20063;-74
2021/01/21 11:18:01;;;;;;;21.33;14.05;;;;;;;7.74;54.66;101312.41;4948603;28;20031;-73
2021/01/21 11:20:30;;;;;;;21.15;14.05;;;;;;;7.71;53.67;101312.22;4943485;28;20027;-73
2021/01/21 11:22:56;;;;;;;25.70;16.63;;;;;;;7.69;53.55;101285.50;4934945;29;20028;-72
2021/01/21 11:25:23;;;;;;;22.33;14.48;;;;;;;7.85;53.02;101297.63;4934696;29;20482;-73